Time;durP1;ratioP1;P1;durP2;ratioP2;P2;SDS_P1;SDS_P2;PMS_P1;PMS_P2;Temp;Humidity;BMP_temperature;BMP_pressure;BME280_temperature;BME280_humidity;BME280_pressure;Samples;Min_cycle;Max_cycle;Signal;HPM_P1;HPM_P2
2023/04/26 00:01:15;;;;;;;5.60;2.87;;;2.90;99.90;;;;;;5032911;28;20743;-45
2023/04/26 00:03:41;;;;;;;8.73;3.20;;;2.80;99.90;;;;;;5015574;28;20788;-43
2023/04/26 00:06:08;;;;;;;6.43;3.00;;;2.80;99.90;;;;;;5015461;28;20207;-43
2023/04/26 00:08:37;;;;;;;6.30;2.53;;;2.80;99.90;;;;;;5033238;28;20544;-47
2023/04/26 00:11:03;;;;;;;8.17;2.67;;;2.70;99.90;;;;;;5015252;28;20552;-49
2023/04/26 00:13:29;;;;;;;6.50;3.20;;;2.70;99.90;;;;;;5033056;28;20202;-51
2023/04/26 00:15:54;;;;;;;6.50;2.90;;;2.60;99.90;;;;;;5032961;28;20243;-51
2023/04/26 00:18:20;;;;;;;4.77;3.10;;;2.60;99.90;;;;;;5032843;28;20184;-51
2023/04/26 00:20:46;;;;;;;6.83;3.00;;;2.60;99.90;;;;;;5032808;28;20204;-48
2023/04/26 00:23:11;;;;;;;5.70;3.20;;;2.50;99.90;;;;;;5032854;28;20228;-49
2023/04/26 00:25:37;;;;;;;7.40;3.30;;;2.50;99.90;;;;;;5032762;28;20177;-48
2023/04/26 00:28:03;;;;;;;6.17;3.60;;;2.50;99.90;;;;;;5033067;28;20176;-49
2023/04/26 00:30:29;;;;;;;6.10;3.10;;;2.40;99.90;;;;;;5033036;28;20267;-49
2023/04/26 00:32:54;;;;;;;6.17;3.20;;;2.40;99.90;;;;;;5032744;28;20201;-50
2023/04/26 00:35:20;;;;;;;6.37;3.13;;;2.30;99.90;;;;;;5032799;28;20230;-48
2023/04/26 00:37:46;;;;;;;5.20;3.03;;;2.30;99.90;;;;;;5032976;28;20196;-49
2023/04/26 00:40:13;;;;;;;8.63;3.33;;;2.20;99.90;;;;;;5033336;28;20689;-49
2023/04/26 00:42:39;;;;;;;6.60;3.00;;;2.20;99.90;;;;;;5036515;28;20604;-50
2023/04/26 00:45:06;;;;;;;4.97;2.93;;;2.20;99.90;;;;;;5036531;28;20226;-49
2023/04/26 00:47:32;;;;;;;5.43;3.00;;;2.20;99.90;;;;;;5036146;28;20173;-48
2023/04/26 00:49:59;;;;;;;5.30;3.33;;;2.10;99.90;;;;;;5036609;28;20630;-49
2023/04/26 00:52:26;;;;;;;4.20;2.60;;;2.10;99.90;;;;;;5036546;28;20193;-49
2023/04/26 00:54:56;;;;;;;3.97;2.60;;;2.00;99.90;;;;;;5036687;28;20195;-50
2023/04/26 00:57:22;;;;;;;4.50;2.50;;;2.00;99.90;;;;;;5036320;28;20184;-49
2023/04/26 00:59:47;;;;;;;3.97;3.00;;;1.90;99.90;;;;;;5018909;28;20677;-48
2023/04/26 01:02:13;;;;;;;7.87;3.10;;;1.90;99.90;;;;;;5037379;28;20200;-49
2023/04/26 01:04:40;;;;;;;3.53;2.60;;;1.90;99.90;;;;;;5043142;28;20181;-51
2023/04/26 01:07:06;;;;;;;4.60;3.30;;;1.90;99.90;;;;;;5032012;28;20177;-49
2023/04/26 01:09:32;;;;;;;4.00;2.80;;;1.80;99.90;;;;;;5039114;28;20184;-50
2023/04/26 01:11:59;;;;;;;5.87;3.50;;;1.80;99.90;;;;;;5036776;28;20668;-49
2023/04/26 01:14:25;;;;;;;4.47;3.10;;;1.80;99.90;;;;;;5018539;28;20272;-51
2023/04/26 01:16:51;;;;;;;7.43;3.70;;;1.80;99.90;;;;;;5035884;28;20180;-50
2023/04/26 01:19:17;;;;;;;5.93;3.40;;;1.80;99.90;;;;;;5035670;28;20181;-49
2023/04/26 01:21:43;;;;;;;6.40;3.50;;;1.70;99.90;;;;;;5035569;28;20213;-50
2023/04/26 01:24:12;;;;;;;4.43;3.20;;;1.70;99.90;;;;;;5035519;28;20181;-50
2023/04/26 01:26:44;;;;;;;7.50;3.17;;;1.70;99.90;;;;;;5035432;28;20176;-49
2023/04/26 01:29:21;;;;;;;4.97;3.20;;;1.60;99.90;;;;;;5035676;28;20521;-48
2023/04/26 01:31:47;;;;;;;6.27;3.03;;;1.60;99.90;;;;;;5035407;28;20681;-50
2023/04/26 01:34:13;;;;;;;4.97;3.00;;;1.60;99.90;;;;;;5035303;28;20187;-50
2023/04/26 01:36:39;;;;;;;6.63;3.07;;;1.50;99.90;;;;;;5036022;28;20537;-51
2023/04/26 01:39:07;;;;;;;4.60;3.17;;;1.50;99.90;;;;;;5035199;28;20177;-50
2023/04/26 01:41:32;;;;;;;5.83;3.30;;;1.40;99.90;;;;;;5035085;28;20208;-50
2023/04/26 01:43:58;;;;;;;8.43;3.80;;;1.40;99.90;;;;;;5035402;28;20173;-49
2023/04/26 01:46:23;;;;;;;7.03;3.90;;;1.40;99.90;;;;;;5035084;28;20196;-49
2023/04/26 01:48:49;;;;;;;6.40;4.10;;;1.40;99.90;;;;;;5034830;28;20280;-48
2023/04/26 01:51:15;;;;;;;9.53;3.63;;;1.30;99.90;;;;;;5034527;28;20188;-50
2023/04/26 01:53:41;;;;;;;7.27;3.87;;;1.30;99.90;;;;;;5034464;28;20201;-50
2023/04/26 01:56:06;;;;;;;6.20;3.50;;;1.30;99.90;;;;;;5034956;28;20775;-50
2023/04/26 01:58:32;;;;;;;8.37;3.90;;;1.20;99.90;;;;;;5035098;28;20177;-50
2023/04/26 02:01:05;;;;;;;8.03;3.30;;;1.20;99.90;;;;;;5034875;28;20688;-49
2023/04/26 02:03:31;;;;;;;5.43;3.20;;;1.20;99.90;;;;;;5035022;28;20201;-49
2023/04/26 02:05:57;;;;;;;4.23;2.70;;;1.20;99.90;;;;;;5035027;28;20537;-50
2023/04/26 02:08:22;;;;;;;5.90;3.63;;;1.10;99.90;;;;;;5034942;28;20181;-49
2023/04/26 02:10:48;;;;;;;7.80;3.33;;;1.10;99.90;;;;;;5034949;28;20212;-48
2023/04/26 02:13:14;;;;;;;5.40;3.30;;;1.00;99.90;;;;;;5035374;28;20211;-48
2023/04/26 02:15:39;;;;;;;6.63;3.20;;;1.00;99.90;;;;;;5034797;28;20344;-48
2023/04/26 02:18:05;;;;;;;4.00;3.20;;;1.00;99.90;;;;;;5035194;28;20188;-48
2023/04/26 02:20:31;;;;;;;7.10;3.20;;;0.90;99.90;;;;;;5034635;28;20205;-48
2023/04/26 02:22:57;;;;;;;12.07;4.07;;;0.90;99.90;;;;;;5035056;28;20192;-48
2023/04/26 02:25:23;;;;;;;7.93;4.03;;;0.90;99.90;;;;;;5035138;28;20176;-49
2023/04/26 02:27:49;;;;;;;5.73;3.60;;;0.90;99.90;;;;;;5036195;28;20178;-48
2023/04/26 02:30:15;;;;;;;7.13;4.13;;;0.90;99.90;;;;;;5034298;28;20649;-49
2023/04/26 02:32:40;;;;;;;5.40;3.33;;;0.80;99.90;;;;;;5034241;28;20208;-43
2023/04/26 02:35:07;;;;;;;7.07;4.00;;;0.90;99.90;;;;;;5016482;28;20180;-43
2023/04/26 02:37:33;;;;;;;11.60;4.33;;;0.80;99.90;;;;;;5016680;28;20181;-43
2023/04/26 02:39:59;;;;;;;6.10;4.00;;;0.80;99.90;;;;;;5034850;28;20208;-43
2023/04/26 02:42:24;;;;;;;7.17;4.17;;;0.80;99.90;;;;;;5034349;28;20193;-43
2023/04/26 02:44:50;;;;;;;6.47;3.90;;;0.80;99.90;;;;;;5034084;28;20644;-45
2023/04/26 02:47:16;;;;;;;9.00;4.67;;;0.80;99.90;;;;;;5034791;28;20510;-44
2023/04/26 02:49:42;;;;;;;6.33;3.43;;;0.90;99.90;;;;;;5034014;28;20267;-43
2023/04/26 02:52:07;;;;;;;8.93;3.87;;;0.80;99.90;;;;;;5034246;28;20652;-43
2023/04/26 02:54:33;;;;;;;5.13;3.53;;;0.80;99.90;;;;;;5016317;28;20172;-43
2023/04/26 02:56:58;;;;;;;6.33;3.80;;;0.80;99.90;;;;;;5034202;28;20634;-43
2023/04/26 02:59:24;;;;;;;8.37;3.53;;;0.80;99.90;;;;;;5033995;28;20184;-46
2023/04/26 03:01:49;;;;;;;8.03;3.50;;;0.80;99.90;;;;;;5033806;28;20196;-45
2023/04/26 03:04:16;;;;;;;4.80;3.40;;;0.70;99.90;;;;;;5033552;28;20235;-44
2023/04/26 03:06:41;;;;;;;4.93;3.70;;;0.70;99.90;;;;;;5033999;28;20173;-44
2023/04/26 03:09:07;;;;;;;7.70;3.70;;;0.60;99.90;;;;;;5033830;28;20695;-43
2023/04/26 03:11:33;;;;;;;5.73;4.03;;;0.60;99.90;;;;;;5033596;28;20644;-45
2023/04/26 03:13:58;;;;;;;8.57;4.37;;;0.70;99.90;;;;;;5034076;28;20318;-44
2023/04/26 03:16:26;;;;;;;7.77;4.17;;;0.70;99.90;;;;;;5016136;28;20568;-43
2023/04/26 03:18:53;;;;;;;9.77;4.37;;;0.70;99.90;;;;;;5033726;28;20187;-44
2023/04/26 03:21:18;;;;;;;11.07;4.27;;;0.60;99.90;;;;;;5015971;28;20680;-45
2023/04/26 03:23:44;;;;;;;8.63;4.80;;;0.70;99.90;;;;;;5033500;28;20247;-44
2023/04/26 03:26:10;;;;;;;8.97;4.07;;;0.70;99.90;;;;;;5033512;28;20183;-43
2023/04/26 03:28:35;;;;;;;6.63;4.13;;;0.70;99.90;;;;;;5033894;28;20189;-46
2023/04/26 03:31:01;;;;;;;7.43;4.53;;;0.70;99.90;;;;;;5033487;28;20176;-44
2023/04/26 03:33:27;;;;;;;9.77;4.20;;;0.70;99.90;;;;;;5033720;28;20204;-42
2023/04/26 03:35:53;;;;;;;10.70;4.63;;;0.60;99.90;;;;;;5015896;28;20184;-45
2023/04/26 03:38:18;;;;;;;7.30;4.47;;;0.60;99.90;;;;;;5034236;28;20268;-43
2023/04/26 03:40:44;;;;;;;11.53;4.27;;;0.60;99.90;;;;;;5033928;28;20203;-43
2023/04/26 03:43:09;;;;;;;8.43;4.57;;;0.60;99.90;;;;;;5016165;28;20200;-44
2023/04/26 03:45:36;;;;;;;7.97;4.23;;;0.60;99.90;;;;;;5034832;28;20184;-41
2023/04/26 03:48:01;;;;;;;9.97;4.17;;;0.50;99.90;;;;;;5034245;28;20192;-43
2023/04/26 03:50:27;;;;;;;8.60;4.10;;;0.40;99.90;;;;;;5034064;28;20912;-45
2023/04/26 03:52:52;;;;;;;7.10;4.00;;;0.40;99.90;;;;;;5034822;28;20692;-44
2023/04/26 03:55:18;;;;;;;5.77;4.00;;;0.30;99.90;;;;;;5037338;28;20247;-44
2023/04/26 03:57:44;;;;;;;5.90;3.80;;;0.30;99.90;;;;;;5036399;28;20257;-44
2023/04/26 04:00:12;;;;;;;7.30;3.87;;;0.20;99.90;;;;;;5033372;28;20204;-42
2023/04/26 04:02:38;;;;;;;6.13;4.00;;;0.20;99.90;;;;;;5033134;28;20234;-44
2023/04/26 04:05:04;;;;;;;5.80;3.37;;;0.20;99.90;;;;;;5033208;28;20413;-41
2023/04/26 04:07:31;;;;;;;6.47;3.90;;;0.10;99.90;;;;;;5033567;28;20187;-43
2023/04/26 04:09:58;;;;;;;6.03;3.53;;;0.10;99.90;;;;;;5033001;28;20261;-44
2023/04/26 04:12:24;;;;;;;6.57;3.47;;;0.00;99.90;;;;;;5033241;28;20191;-45
2023/04/26 04:14:51;;;;;;;7.10;3.60;;;0.00;99.90;;;;;;5015618;28;20176;-45
2023/04/26 04:17:17;;;;;;;5.10;3.27;;;0.00;99.90;;;;;;5037015;28;20667;-43
2023/04/26 04:19:43;;;;;;;6.07;3.90;;;-0.10;99.90;;;;;;5036900;28;20452;-44
2023/04/26 04:22:09;;;;;;;7.83;4.30;;;-0.10;99.90;;;;;;5037023;28;20253;-45
2023/04/26 04:24:35;;;;;;;5.77;3.43;;;-0.10;99.90;;;;;;5036922;28;20699;-44
2023/04/26 04:27:02;;;;;;;5.87;4.00;;;-0.20;99.90;;;;;;5037271;28;20175;-44
2023/04/26 04:29:28;;;;;;;6.00;3.93;;;-0.20;99.90;;;;;;5037049;28;20533;-46
2023/04/26 04:31:53;;;;;;;5.50;3.70;;;-0.20;99.90;;;;;;5036987;28;20194;-44
2023/04/26 04:34:19;;;;;;;7.23;3.80;;;-0.20;99.90;;;;;;5036995;28;20164;-43
2023/04/26 04:36:44;;;;;;;10.67;4.07;;;-0.20;99.90;;;;;;5037107;28;20178;-44
2023/04/26 04:39:14;;;;;;;8.67;4.30;;;-0.20;99.90;;;;;;5037221;28;20557;-45
2023/04/26 04:41:46;;;;;;;9.07;4.03;;;-0.20;99.90;;;;;;5038294;28;20203;-44
2023/04/26 04:44:14;;;;;;;5.93;4.20;;;-0.20;99.90;;;;;;5036857;28;20394;-43
2023/04/26 04:46:40;;;;;;;7.60;4.20;;;-0.20;99.90;;;;;;5036783;28;20254;-44
2023/04/26 04:49:08;;;;;;;7.57;4.13;;;-0.20;99.90;;;;;;5036503;28;20478;-43
2023/04/26 04:51:33;;;;;;;7.87;4.93;;;-0.20;99.90;;;;;;5036964;28;20208;-44
2023/04/26 04:54:07;;;;;;;9.37;3.83;;;-0.20;99.90;;;;;;5036458;28;20413;-44
2023/04/26 04:56:33;;;;;;;10.47;5.03;;;-0.10;99.90;;;;;;5018794;28;20171;-44
2023/04/26 04:58:59;;;;;;;7.40;4.47;;;-0.10;99.90;;;;;;5036677;28;20439;-45
2023/04/26 05:01:24;;;;;;;8.13;4.37;;;-0.10;99.90;;;;;;5036517;28;20207;-43
2023/04/26 05:03:50;;;;;;;10.67;4.83;;;0.00;99.90;;;;;;5036486;28;20379;-44
2023/04/26 05:06:15;;;;;;;6.87;4.30;;;0.00;99.90;;;;;;5036868;28;20211;-43
2023/04/26 05:08:41;;;;;;;7.47;4.70;;;0.10;99.90;;;;;;5018596;28;20276;-43
2023/04/26 05:11:07;;;;;;;10.23;4.57;;;0.10;99.90;;;;;;5037367;28;20192;-45
2023/04/26 05:13:32;;;;;;;8.00;4.63;;;0.20;99.90;;;;;;5022501;28;20236;-44
2023/04/26 05:15:58;;;;;;;9.47;4.80;;;0.30;99.90;;;;;;5038015;28;20180;-45
2023/04/26 05:18:23;;;;;;;6.70;4.53;;;0.30;99.90;;;;;;5035854;28;20183;-45
2023/04/26 05:20:49;;;;;;;9.03;4.87;;;0.40;99.90;;;;;;5036015;28;20781;-44
2023/04/26 05:23:15;;;;;;;10.77;4.87;;;0.50;99.90;;;;;;5017912;28;20209;-42
2023/04/26 05:25:41;;;;;;;7.17;4.97;;;0.60;99.90;;;;;;5035457;28;20666;-45
2023/04/26 05:28:11;;;;;;;10.37;5.07;;;0.70;99.90;;;;;;5035452;28;20179;-44
2023/04/26 05:30:37;;;;;;;11.93;5.20;;;0.80;99.90;;;;;;5002248;28;20181;-44
2023/04/26 05:33:03;;;;;;;10.50;6.20;;;1.00;99.90;;;;;;5018393;28;20460;-45
2023/04/26 05:35:28;;;;;;;11.73;5.30;;;1.20;99.90;;;;;;5035675;28;20989;-45
2023/04/26 05:37:54;;;;;;;12.13;6.03;;;1.40;99.90;;;;;;5035896;28;20183;-43
2023/04/26 05:40:19;;;;;;;13.60;7.10;;;1.60;99.90;;;;;;5035908;28;20728;-45
2023/04/26 05:42:45;;;;;;;12.80;6.63;;;1.70;99.90;;;;;;5035487;28;20732;-46
2023/04/26 05:45:11;;;;;;;15.80;7.57;;;1.90;99.90;;;;;;5035816;28;20637;-44
2023/04/26 05:47:36;;;;;;;13.73;6.03;;;2.10;99.90;;;;;;5035286;28;20184;-45
2023/04/26 05:50:02;;;;;;;17.13;7.73;;;2.30;99.90;;;;;;5035483;28;20173;-44
2023/04/26 05:52:28;;;;;;;10.87;6.93;;;2.50;99.90;;;;;;5035183;28;20205;-45
2023/04/26 05:54:53;;;;;;;17.67;7.10;;;2.70;99.90;;;;;;5035595;28;20184;-44
2023/04/26 05:57:19;;;;;;;18.80;7.00;;;3.00;99.90;;;;;;5017279;28;20630;-44
2023/04/26 05:59:45;;;;;;;14.70;7.50;;;3.30;99.90;;;;;;5034979;28;20187;-44
2023/04/26 06:02:10;;;;;;;17.47;7.23;;;3.40;99.90;;;;;;5034921;28;20212;-44
2023/04/26 06:04:36;;;;;;;16.07;7.77;;;3.70;99.90;;;;;;5034871;28;20180;-45
2023/04/26 06:07:02;;;;;;;12.40;7.57;;;4.00;99.90;;;;;;5035061;28;20180;-45
2023/04/26 06:09:30;;;;;;;15.17;7.53;;;4.20;99.90;;;;;;5034931;28;20173;-45
2023/04/26 06:11:55;;;;;;;14.17;7.20;;;4.40;99.90;;;;;;5035345;28;20632;-44
2023/04/26 06:14:21;;;;;;;14.80;7.27;;;4.50;99.90;;;;;;5034916;28;20211;-45
2023/04/26 06:16:47;;;;;;;13.60;6.83;;;4.70;99.90;;;;;;5034877;28;20183;-44
2023/04/26 06:19:12;;;;;;;14.10;7.70;;;4.90;99.90;;;;;;5034894;28;20202;-45
2023/04/26 06:21:38;;;;;;;13.60;7.40;;;5.00;99.90;;;;;;5034327;28;20205;-45
2023/04/26 06:24:04;;;;;;;12.90;7.33;;;5.10;99.90;;;;;;5034428;28;20173;-44
2023/04/26 06:26:30;;;;;;;15.00;7.23;;;5.20;99.90;;;;;;5034343;28;20244;-44
2023/04/26 06:28:56;;;;;;;16.27;6.97;;;5.40;99.90;;;;;;5034362;28;20260;-45
2023/04/26 06:31:21;;;;;;;13.93;6.53;;;5.70;99.90;;;;;;5034562;28;20606;-45
2023/04/26 06:33:47;;;;;;;19.63;7.37;;;5.80;99.90;;;;;;5034512;28;20185;-45
2023/04/26 06:36:13;;;;;;;11.50;7.17;;;5.90;99.90;;;;;;5034608;28;20208;-44
2023/04/26 06:38:39;;;;;;;17.07;7.03;;;6.10;99.90;;;;;;5015872;28;20192;-47
2023/04/26 06:41:04;;;;;;;14.37;6.17;;;6.30;99.90;;;;;;5034330;28;20196;-44
2023/04/26 06:43:30;;;;;;;14.83;6.83;;;6.30;99.90;;;;;;5038820;28;20193;-46
2023/04/26 06:45:56;;;;;;;14.90;6.37;;;6.50;99.90;;;;;;5053441;28;20215;-46
2023/04/26 06:48:21;;;;;;;15.33;7.10;;;6.50;99.90;;;;;;5045387;28;20201;-46
2023/04/26 06:50:47;;;;;;;15.07;7.53;;;6.60;99.90;;;;;;5034290;28;20182;-45
2023/04/26 06:53:12;;;;;;;14.00;6.50;;;6.60;99.90;;;;;;5034373;28;20201;-44
2023/04/26 06:55:38;;;;;;;14.07;6.47;;;6.60;99.90;;;;;;5034002;28;20220;-46
2023/04/26 06:58:03;;;;;;;15.07;6.80;;;6.60;99.90;;;;;;5033929;28;20189;-45
2023/04/26 07:00:29;;;;;;;13.27;6.13;;;6.70;99.90;;;;;;5033920;28;20206;-45
2023/04/26 07:02:55;;;;;;;16.23;7.10;;;6.80;99.90;;;;;;5016251;28;20208;-46
2023/04/26 07:05:21;;;;;;;11.13;5.77;;;6.90;99.90;;;;;;5034338;28;20205;-45
2023/04/26 07:07:47;;;;;;;17.37;6.00;;;7.00;99.90;;;;;;5034365;28;20216;-45
2023/04/26 07:10:12;;;;;;;14.40;7.17;;;7.20;99.90;;;;;;5033789;28;20705;-45
2023/04/26 07:12:38;;;;;;;12.73;5.60;;;7.40;99.90;;;;;;5016197;28;20210;-45
2023/04/26 07:15:05;;;;;;;11.47;6.17;;;7.40;99.90;;;;;;5033601;28;20276;-46
2023/04/26 07:17:31;;;;;;;14.43;7.10;;;7.50;99.90;;;;;;5033685;28;20181;-46
2023/04/26 07:19:57;;;;;;;14.50;6.43;;;7.50;99.90;;;;;;5033862;28;20219;-45
2023/04/26 07:22:23;;;;;;;19.47;6.47;;;7.50;99.90;;;;;;5033800;28;20559;-46
2023/04/26 07:24:48;;;;;;;12.53;5.67;;;7.50;99.90;;;;;;5033597;28;20614;-45
2023/04/26 07:27:14;;;;;;;10.93;5.83;;;7.60;99.90;;;;;;5015877;28;20178;-45
2023/04/26 07:29:40;;;;;;;10.00;5.40;;;7.70;99.90;;;;;;5033443;28;20713;-46
2023/04/26 07:32:05;;;;;;;14.67;6.20;;;7.80;99.90;;;;;;5033938;28;20207;-44
2023/04/26 07:34:31;;;;;;;13.33;6.37;;;7.90;99.90;;;;;;5033833;28;20184;-46
2023/04/26 07:36:57;;;;;;;9.13;6.23;;;7.90;99.90;;;;;;5033753;28;20239;-46
2023/04/26 07:39:23;;;;;;;17.97;6.17;;;7.90;99.90;;;;;;4999510;28;20185;-46
2023/04/26 07:41:48;;;;;;;14.53;5.43;;;7.80;99.90;;;;;;5033526;28;20263;-46
2023/04/26 07:44:14;;;;;;;10.30;5.27;;;7.70;99.90;;;;;;5033744;28;20246;-46
2023/04/26 07:46:40;;;;;;;16.10;6.10;;;7.90;99.90;;;;;;5033601;28;20587;-46
2023/04/26 07:49:06;;;;;;;12.87;5.23;;;8.00;99.90;;;;;;5033969;28;20283;-45
2023/04/26 07:51:32;;;;;;;9.10;4.70;;;8.00;99.90;;;;;;5037515;28;20189;-46
2023/04/26 07:53:57;;;;;;;15.00;5.67;;;8.10;99.90;;;;;;5037879;28;20558;-45
2023/04/26 07:56:23;;;;;;;10.43;5.53;;;8.40;99.90;;;;;;5037910;28;20189;-48
2023/04/26 07:58:49;;;;;;;14.93;5.83;;;8.60;99.90;;;;;;5037905;28;20267;-45
2023/04/26 08:01:15;;;;;;;9.87;5.60;;;8.70;99.90;;;;;;5037575;28;20665;-48
2023/04/26 08:03:41;;;;;;;7.97;4.07;;;9.00;99.90;;;;;;5019501;28;20247;-45
2023/04/26 08:06:07;;;;;;;11.17;5.10;;;9.10;99.90;;;;;;5038090;28;20192;-45
2023/04/26 08:08:39;;;;;;;9.50;4.90;;;9.20;99.90;;;;;;5038294;28;20227;-46
2023/04/26 08:11:06;;;;;;;11.47;5.60;;;9.40;99.90;;;;;;5038128;28;20239;-46
2023/04/26 08:13:32;;;;;;;13.57;4.80;;;9.50;99.90;;;;;;5037682;28;20224;-47
2023/04/26 08:15:57;;;;;;;9.50;5.33;;;9.70;99.90;;;;;;5039218;28;20641;-46
2023/04/26 08:18:23;;;;;;;8.73;4.97;;;9.70;99.90;;;;;;5038934;28;20188;-46
2023/04/26 08:20:48;;;;;;;12.70;5.17;;;9.80;99.90;;;;;;5036634;28;20299;-47
2023/04/26 08:23:14;;;;;;;14.87;5.50;;;9.80;99.90;;;;;;5037087;28;20202;-48
2023/04/26 08:25:40;;;;;;;14.00;4.83;;;9.90;99.90;;;;;;5036885;28;20232;-47
2023/04/26 08:28:07;;;;;;;6.67;4.27;;;10.10;99.90;;;;;;5036795;28;20184;-47
2023/04/26 08:30:33;;;;;;;7.47;4.27;;;10.30;99.90;;;;;;5036957;28;20596;-45
2023/04/26 08:32:58;;;;;;;8.70;4.33;;;10.50;99.90;;;;;;5036867;28;20291;-47
2023/04/26 08:35:24;;;;;;;11.23;4.17;;;10.60;99.90;;;;;;5036605;28;20195;-46
2023/04/26 08:37:50;;;;;;;13.97;4.50;;;10.70;99.90;;;;;;5036473;28;20235;-47
2023/04/26 08:40:24;;;;;;;9.90;4.17;;;10.80;99.90;;;;;;5036607;28;20209;-44
2023/04/26 08:42:51;;;;;;;10.93;4.23;;;10.70;99.90;;;;;;5018542;28;20239;-46
2023/04/26 08:45:17;;;;;;;9.47;4.50;;;10.70;99.90;;;;;;5036236;28;20205;-48
2023/04/26 08:47:49;;;;;;;10.47;4.40;;;10.80;99.90;;;;;;5036215;28;20653;-47
2023/04/26 08:50:18;;;;;;;8.23;3.80;;;11.00;99.90;;;;;;5036460;28;20197;-46
2023/04/26 08:52:46;;;;;;;8.43;2.97;;;11.10;99.90;;;;;;5036510;28;20216;-46
2023/04/26 08:55:15;;;;;;;6.17;3.33;;;11.20;99.90;;;;;;5036359;28;20256;-47
2023/04/26 08:57:42;;;;;;;6.23;3.17;;;12.10;99.90;;;;;;5036454;28;20192;-46
2023/04/26 09:00:12;;;;;;;10.03;3.27;;;11.60;99.90;;;;;;5036039;28;20240;-47
2023/04/26 09:02:41;;;;;;;7.00;2.90;;;11.80;99.90;;;;;;5035517;28;20215;-47
2023/04/26 09:05:08;;;;;;;10.23;3.40;;;11.80;99.90;;;;;;5035822;28;20645;-47
2023/04/26 09:07:59;;;;;;;8.47;3.00;;;11.90;99.90;;;;;;5036503;28;20256;-46
2023/04/26 09:10:25;;;;;;;5.50;3.00;;;11.90;99.90;;;;;;5023289;28;20193;-48
2023/04/26 09:12:54;;;;;;;5.67;2.90;;;11.90;99.90;;;;;;5036368;28;20205;-46
2023/04/26 09:15:21;;;;;;;5.27;2.50;;;11.70;99.90;;;;;;5035963;28;20698;-47
2023/04/26 09:17:48;;;;;;;7.33;2.57;;;11.30;99.90;;;;;;5035777;28;20263;-47
2023/04/26 09:20:25;;;;;;;11.73;3.00;;;11.10;99.90;;;;;;5035991;28;20575;-47
2023/04/26 09:23:11;;;;;;;7.70;3.03;;;10.80;99.90;;;;;;5035962;28;20243;-47
2023/04/26 09:25:37;;;;;;;11.10;3.20;;;10.80;99.90;;;;;;5017208;28;20192;-47
2023/04/26 09:28:17;;;;;;;10.63;3.30;;;10.80;99.90;;;;;;5018016;28;20188;-47
2023/04/26 09:30:42;;;;;;;7.70;2.70;;;10.70;99.90;;;;;;5035834;28;20169;-47
2023/04/26 09:33:08;;;;;;;11.63;2.80;;;10.50;99.90;;;;;;5035766;28;20215;-48
2023/04/26 09:35:39;;;;;;;4.73;2.40;;;10.60;99.90;;;;;;5035830;28;20180;-48
2023/04/26 09:38:05;;;;;;;5.10;2.77;;;10.70;99.90;;;;;;5035465;28;20198;-47
2023/04/26 09:40:32;;;;;;;6.37;3.10;;;10.90;99.90;;;;;;5035786;28;20211;-47
2023/04/26 09:43:12;;;;;;;6.33;2.53;;;11.00;99.90;;;;;;5035268;28;20200;-46
2023/04/26 09:45:55;;;;;;;6.53;2.87;;;11.10;99.90;;;;;;5035350;28;20614;-48
2023/04/26 09:48:25;;;;;;;7.80;2.97;;;11.30;99.90;;;;;;5035367;28;20188;-47
2023/04/26 09:50:56;;;;;;;6.27;2.90;;;11.60;99.90;;;;;;5035312;28;20576;-48
2023/04/26 09:53:38;;;;;;;7.67;2.60;;;11.50;99.90;;;;;;5035137;28;20270;-47
2023/04/26 09:56:07;;;;;;;6.23;2.47;;;11.30;99.90;;;;;;5035306;28;20161;-49
2023/04/26 09:58:33;;;;;;;7.33;3.00;;;11.30;99.90;;;;;;5035276;28;20189;-48
2023/04/26 10:00:59;;;;;;;6.03;2.53;;;11.20;99.90;;;;;;5035114;28;20568;-47
2023/04/26 10:03:25;;;;;;;9.13;2.40;;;11.10;99.90;;;;;;5035067;28;20196;-47
2023/04/26 10:05:52;;;;;;;6.57;2.10;;;11.00;99.90;;;;;;5035149;28;20280;-48
2023/04/26 10:08:18;;;;;;;5.27;2.63;;;10.90;99.90;;;;;;5035818;28;20596;-46
2023/04/26 10:10:44;;;;;;;6.10;2.67;;;10.70;99.90;;;;;;5034824;28;20260;-48
2023/04/26 10:13:10;;;;;;;5.37;1.80;;;10.70;99.90;;;;;;5033737;28;20291;-47
2023/04/26 10:15:36;;;;;;;5.60;2.70;;;10.60;99.90;;;;;;5034611;28;20223;-47
2023/04/26 10:18:02;;;;;;;6.47;2.37;;;10.70;99.90;;;;;;5035236;28;20745;-47
2023/04/26 10:20:28;;;;;;;8.77;2.53;;;10.80;99.90;;;;;;5035636;28;20268;-48
2023/04/26 10:23:00;;;;;;;6.80;2.73;;;11.00;99.90;;;;;;5040135;28;20205;-48
2023/04/26 10:25:39;;;;;;;6.47;2.63;;;11.20;99.90;;;;;;5044725;28;20161;-47
2023/04/26 10:28:05;;;;;;;10.77;2.53;;;11.40;99.90;;;;;;5042747;28;20679;-48
2023/04/26 10:30:31;;;;;;;5.63;2.90;;;11.60;99.90;;;;;;5035841;28;20189;-47
2023/04/26 10:32:56;;;;;;;8.13;2.93;;;11.60;99.90;;;;;;5034889;28;20283;-49
2023/04/26 10:35:25;;;;;;;8.17;3.30;;;11.60;99.90;;;;;;5034800;28;20266;-48
2023/04/26 10:37:59;;;;;;;7.13;3.10;;;11.80;99.90;;;;;;5034515;28;20570;-47
2023/04/26 10:40:33;;;;;;;5.10;2.63;;;11.90;99.90;;;;;;5034082;28;20283;-47
2023/04/26 10:43:08;;;;;;;4.27;2.63;;;12.00;99.90;;;;;;5034136;28;20197;-47
2023/04/26 10:45:34;;;;;;;4.17;2.47;;;12.20;99.90;;;;;;5034074;28;20256;-48
2023/04/26 10:48:20;;;;;;;5.10;2.70;;;12.30;99.90;;;;;;5033767;28;20192;-51
2023/04/26 10:51:01;;;;;;;6.63;2.63;;;12.50;99.90;;;;;;5034250;28;20226;-52
2023/04/26 10:53:28;;;;;;;4.73;2.87;;;12.60;99.90;;;;;;5033857;28;20749;-51
2023/04/26 10:55:54;;;;;;;9.73;2.77;;;12.50;99.90;;;;;;5034102;28;20226;-52
2023/04/26 10:58:33;;;;;;;5.67;2.80;;;12.60;99.90;;;;;;5033865;28;20252;-52
2023/04/26 11:01:19;;;;;;;7.67;3.00;;;12.80;99.90;;;;;;5033680;28;20568;-51
2023/04/26 11:03:57;;;;;;;5.33;2.80;;;12.80;99.90;;;;;;5033958;28;20213;-51
2023/04/26 11:06:23;;;;;;;6.00;2.30;;;12.80;99.90;;;;;;5033927;28;20216;-52
2023/04/26 11:08:50;;;;;;;6.73;2.83;;;12.90;99.90;;;;;;5033599;28;20273;-52
2023/04/26 11:11:18;;;;;;;9.03;3.00;;;13.10;99.90;;;;;;5033921;28;20559;-51
2023/04/26 11:13:45;;;;;;;5.57;2.67;;;13.30;99.90;;;;;;5033391;28;20213;-51
2023/04/26 11:16:15;;;;;;;6.97;2.50;;;13.60;99.90;;;;;;5033740;28;20642;-51
2023/04/26 11:18:43;;;;;;;4.97;2.50;;;13.80;99.90;;;;;;5015804;28;20638;-52
2023/04/26 11:21:10;;;;;;;6.90;2.77;;;14.00;99.90;;;;;;5015611;28;20208;-52
2023/04/26 11:23:35;;;;;;;11.17;2.80;;;14.30;99.90;;;;;;5033372;28;20212;-52
2023/04/26 11:26:07;;;;;;;7.73;2.70;;;14.50;99.90;;;;;;5033553;28;20168;-48
2023/04/26 11:28:34;;;;;;;8.03;2.80;;;14.60;99.90;;;;;;5033792;28;20181;-48
2023/04/26 11:31:00;;;;;;;5.27;2.63;;;14.70;99.90;;;;;;5033305;28;20192;-48
2023/04/26 11:33:26;;;;;;;6.37;2.80;;;14.90;99.90;;;;;;5033509;28;20205;-48
2023/04/26 11:35:54;;;;;;;5.87;2.63;;;14.90;99.90;;;;;;5033778;28;20184;-48
2023/04/26 11:38:27;;;;;;;4.93;2.40;;;14.70;99.90;;;;;;5033569;28;20276;-47
2023/04/26 11:40:56;;;;;;;5.10;2.70;;;14.30;99.90;;;;;;5033522;28;20208;-46
2023/04/26 11:43:28;;;;;;;9.27;2.80;;;14.00;99.90;;;;;;5033266;28;20209;-47
2023/04/26 11:46:00;;;;;;;10.63;3.60;;;13.80;99.90;;;;;;5033572;28;20589;-48
2023/04/26 11:48:26;;;;;;;4.67;2.57;;;13.60;99.90;;;;;;5033245;28;20284;-48
2023/04/26 11:50:52;;;;;;;8.20;2.90;;;13.60;99.90;;;;;;5033438;28;20184;-47
2023/04/26 11:53:17;;;;;;;6.73;2.20;;;13.70;99.90;;;;;;5033465;28;20562;-48
2023/04/26 11:55:44;;;;;;;4.93;2.23;;;13.50;99.90;;;;;;5033358;28;20230;-49
2023/04/26 11:58:12;;;;;;;4.67;2.97;;;13.40;99.90;;;;;;5033398;28;20184;-48
2023/04/26 12:00:55;;;;;;;9.27;2.80;;;13.40;99.90;;;;;;5033254;28;20208;-49
2023/04/26 12:03:22;;;;;;;6.23;2.47;;;13.30;99.90;;;;;;5033002;28;20192;-50
2023/04/26 12:05:54;;;;;;;4.57;2.50;;;13.60;99.90;;;;;;5033054;28;20169;-48
2023/04/26 12:08:23;;;;;;;6.47;2.60;;;14.00;99.90;;;;;;5033278;28;20181;-48
2023/04/26 12:10:48;;;;;;;3.97;2.43;;;14.00;99.90;;;;;;5032989;28;20260;-48
2023/04/26 12:13:15;;;;;;;8.37;2.30;;;14.10;99.90;;;;;;5033398;28;20236;-46
2023/04/26 12:15:40;;;;;;;4.37;2.40;;;14.10;99.90;;;;;;5032848;28;20185;-47
2023/04/26 12:18:10;;;;;;;3.80;2.30;;;14.10;99.90;;;;;;5032907;28;20191;-48
2023/04/26 12:20:37;;;;;;;3.63;2.17;;;14.10;99.90;;;;;;5032851;28;20303;-48
2023/04/26 12:23:12;;;;;;;6.70;2.73;;;14.10;99.90;;;;;;5032889;28;20551;-49
2023/04/26 12:25:39;;;;;;;4.87;2.57;;;13.90;99.90;;;;;;5033107;28;20175;-49
2023/04/26 12:28:10;;;;;;;5.93;2.17;;;13.90;99.90;;;;;;5033076;28;20219;-48
2023/04/26 12:30:38;;;;;;;6.20;2.67;;;13.90;99.90;;;;;;5033085;28;20169;-48
2023/04/26 12:33:04;;;;;;;3.60;2.30;;;13.90;99.90;;;;;;5032717;28;20204;-48
2023/04/26 12:35:30;;;;;;;3.93;1.90;;;14.00;99.90;;;;;;5032973;28;20242;-47
2023/04/26 12:37:55;;;;;;;7.23;2.60;;;14.20;99.90;;;;;;5036213;28;20276;-46
2023/04/26 12:40:22;;;;;;;4.67;2.43;;;14.50;99.90;;;;;;5018632;28;20350;-49
2023/04/26 12:42:49;;;;;;;6.20;2.47;;;14.60;99.90;;;;;;5036789;28;20283;-48
2023/04/26 12:45:17;;;;;;;3.37;2.30;;;14.80;99.90;;;;;;5018469;28;20177;-48
2023/04/26 12:47:43;;;;;;;5.57;3.00;;;15.10;99.90;;;;;;5036343;28;20207;-49
2023/04/26 12:50:11;;;;;;;6.03;2.70;;;15.40;99.90;;;;;;5036490;28;20169;-49